Time;durP1;ratioP1;P1;durP2;ratioP2;P2;SDS_P1;SDS_P2;PMS_P1;PMS_P2;Temp;Humidity;BMP_temperature;BMP_pressure;BME280_temperature;BME280_humidity;BME280_pressure;Samples;Min_cycle;Max_cycle;Signal;HPM_P1;HPM_P2
2022/10/18 00:00:56;;;;;;;1.15;1.13;;;;;;;11.62;100.00;101238.31;5050797;28;20482;-86
2022/10/18 00:03:22;;;;;;;1.63;1.33;;;;;;;11.60;100.00;101235.19;5033910;28;20084;-85
2022/10/18 00:05:48;;;;;;;0.40;0.40;;;;;;;11.57;100.00;101247.09;5071074;28;20052;-85
2022/10/18 00:08:14;;;;;;;2.42;1.33;;;;;;;11.53;100.00;101241.59;5046183;28;20126;-86
2022/10/18 00:10:40;;;;;;;0.70;0.68;;;;;;;11.49;100.00;101228.94;5048329;28;20048;-85
2022/10/18 00:13:06;;;;;;;0.60;0.60;;;;;;;11.55;100.00;101243.97;5064671;28;20047;-86
2022/10/18 00:15:31;;;;;;;0.90;0.90;;;;;;;11.54;100.00;101234.84;5036027;28;20406;-86
2022/10/18 00:17:57;;;;;;;0.47;0.40;;;;;;;11.51;100.00;101226.53;5050430;28;20103;-86
2022/10/18 00:20:22;;;;;;;1.02;0.93;;;;;;;11.49;100.00;101228.94;5049800;28;20092;-85
2022/10/18 00:22:48;;;;;;;1.15;1.05;;;;;;;11.42;100.00;101215.13;5049748;28;20037;-86
2022/10/18 00:25:13;;;;;;;0.98;0.93;;;;;;;11.44;100.00;101226.63;5032537;28;20045;-80
2022/10/18 00:27:39;;;;;;;1.45;1.35;;;;;;;11.41;100.00;101227.44;5054536;28;20158;-79
2022/10/18 00:30:05;;;;;;;0.90;0.73;;;;;;;11.32;100.00;101229.94;5048593;28;20474;-79
2022/10/18 00:32:35;;;;;;;1.52;1.42;;;;;;;11.33;100.00;101228.72;5050127;28;20597;-79
2022/10/18 00:35:01;;;;;;;1.00;0.93;;;;;;;11.28;100.00;101218.09;5032689;28;20052;-80
2022/10/18 00:37:27;;;;;;;1.10;1.08;;;;;;;11.24;100.00;101224.44;5032677;28;20394;-79
2022/10/18 00:39:52;;;;;;;0.65;0.65;;;;;;;11.22;100.00;101221.31;5050787;28;20039;-80
2022/10/18 00:42:19;;;;;;;0.35;0.35;;;;;;;11.20;100.00;101218.13;5053838;28;20052;-80
2022/10/18 00:44:45;;;;;;;1.30;1.02;;;;;;;11.19;100.00;101222.13;5029115;28;20442;-79
2022/10/18 00:47:12;;;;;;;1.48;1.20;;;;;;;11.16;100.00;101222.19;5023277;28;20037;-79
2022/10/18 00:49:40;;;;;;;1.02;0.98;;;;;;;11.10;100.00;101219.03;5017833;28;20040;-80
2022/10/18 00:52:19;;;;;;;0.38;0.38;;;;;;;11.07;100.00;101208.78;5032496;28;20107;-81
2022/10/18 00:54:46;;;;;;;1.70;1.15;;;;;;;11.07;100.00;101208.78;5050144;28;20049;-79
2022/10/18 00:57:12;;;;;;;1.02;0.65;;;;;;;11.02;100.00;101209.22;5036550;28;20036;-79
2022/10/18 00:59:38;;;;;;;4.90;2.50;;;;;;;10.97;100.00;101215.19;5032173;28;20152;-79
2022/10/18 01:02:08;;;;;;;0.85;0.85;;;;;;;10.86;100.00;101195.09;5261716;22;20569;-85
2022/10/18 01:22:10;;;;;;;0.47;0.43;;;;;;;10.68;100.00;101180.56;5053283;23;20049;-82
2022/10/18 01:24:51;;;;;;;1.48;1.38;;;;;;;10.65;100.00;101181.41;5024007;28;20057;-82
2022/10/18 01:27:46;;;;;;;2.45;1.85;;;;;;;10.65;100.00;101193.28;5032788;28;20255;-82
2022/10/18 01:30:30;;;;;;;1.20;0.77;;;;;;;10.64;100.00;101179.81;5032577;28;20502;-82
2022/10/18 01:33:16;;;;;;;1.50;1.40;;;;;;;10.59;100.00;101166.41;5020337;28;20116;-82
2022/10/18 01:35:46;;;;;;;3.40;1.33;;;;;;;10.54;100.00;101164.06;5019638;28;20052;-82
2022/10/18 01:38:16;;;;;;;1.95;1.60;;;;;;;10.56;100.00;101172.75;5021055;28;20044;-83
2022/10/18 01:40:43;;;;;;;0.65;0.65;;;;;;;10.50;100.00;101157.75;5016582;28;20073;-82
2022/10/18 01:43:09;;;;;;;0.90;0.80;;;;;;;10.49;100.00;101167.28;4999596;28;20061;-82
2022/10/18 01:45:35;;;;;;;1.13;0.88;;;;;;;10.39;100.00;101162.63;5019543;28;20430;-82
2022/10/18 01:48:01;;;;;;;7.70;1.30;;;;;;;10.38;100.00;101163.81;5003952;28;20132;-82
2022/10/18 01:50:31;;;;;;;1.23;0.75;;;;;;;10.37;100.00;101160.25;5010566;28;20148;-81
2022/10/18 01:52:57;;;;;;;0.57;0.57;;;;;;;10.36;100.00;101153.09;5018735;28;20406;-82
2022/10/18 01:55:45;;;;;;;1.63;1.45;;;;;;;10.35;100.00;101150.75;5035303;28;20041;-82
2022/10/18 01:58:20;;;;;;;1.85;1.75;;;;;;;10.35;100.00;101146.00;5053147;28;20044;-84
2022/10/18 02:00:48;;;;;;;0.55;0.55;;;;;;;10.28;100.00;101146.84;5035662;28;20411;-83
2022/10/18 02:03:23;;;;;;;1.40;1.08;;;;;;;10.25;100.00;101131.03;5035265;28;20098;-83
2022/10/18 02:06:04;;;;;;;2.25;2.05;;;;;;;10.25;100.00;101142.09;5035226;28;20048;-83
2022/10/18 02:08:42;;;;;;;0.98;0.95;;;;;;;10.24;100.00;101139.72;5015555;28;20083;-83
2022/10/18 02:11:09;;;;;;;0.70;0.70;;;;;;;10.23;100.00;101138.94;5009752;28;20045;-83
2022/10/18 02:13:40;;;;;;;0.85;0.82;;;;;;;10.23;100.00;101138.94;5035414;28;20025;-83
2022/10/18 02:16:18;;;;;;;5.25;1.75;;;;;;;10.17;100.00;101140.59;5018912;28;20496;-83
2022/10/18 02:18:52;;;;;;;1.38;1.00;;;;;;;10.14;100.00;101141.38;5035232;28;20049;-83
2022/10/18 02:21:20;;;;;;;0.70;0.70;;;;;;;10.17;100.00;101140.59;5034116;28;20044;-85
2022/10/18 02:23:46;;;;;;;0.30;0.30;;;;;;;10.16;100.00;101150.09;5035003;28;20040;-83
2022/10/18 02:26:12;;;;;;;1.08;0.98;;;;;;;10.18;100.00;101141.38;5052872;28;20410;-83
2022/10/18 02:28:38;;;;;;;1.00;0.70;;;;;;;10.23;100.00;101144.50;5014704;28;20052;-83
2022/10/18 02:31:12;;;;;;;0.38;0.38;;;;;;;10.27;100.00;101148.03;5027732;28;20037;-83
2022/10/18 02:33:53;;;;;;;5.15;1.60;;;;;;;10.28;100.00;101146.03;5052483;28;21271;-83
2022/10/18 02:36:32;;;;;;;1.15;1.05;;;;;;;10.27;100.00;101147.25;5052169;28;20490;-83
2022/10/18 02:39:02;;;;;;;2.92;0.88;;;;;;;10.29;100.00;101144.84;5008836;28;20049;-85
2022/10/18 02:41:29;;;;;;;0.50;0.50;;;;;;;10.28;100.00;101143.25;5004131;28;20053;-83
2022/10/18 02:43:55;;;;;;;1.33;1.23;;;;;;;10.24;100.00;101146.06;5009307;28;20445;-83
2022/10/18 02:46:20;;;;;;;1.85;1.52;;;;;;;10.26;100.00;101157.56;5044621;28;20037;-83
2022/10/18 02:48:46;;;;;;;0.90;0.75;;;;;;;10.22;100.00;101159.56;5026016;28;20060;-85
2022/10/18 02:51:11;;;;;;;1.25;1.20;;;;;;;10.19;100.00;101154.81;5015968;28;20090;-83
2022/10/18 02:53:37;;;;;;;1.52;1.42;;;;;;;10.19;100.00;101156.81;5004432;28;20050;-83
2022/10/18 02:56:02;;;;;;;0.40;0.40;;;;;;;10.16;100.00;101160.38;4984503;28;20045;-83
2022/10/18 02:58:28;;;;;;;0.35;0.35;;;;;;;10.17;100.00;101161.97;5001249;28;20073;-83
2022/10/18 03:00:53;;;;;;;1.00;0.93;;;;;;;10.14;100.00;101158.00;5017939;28;20493;-83
2022/10/18 03:03:19;;;;;;;1.60;1.33;;;;;;;10.11;100.00;101128.31;5033865;28;20036;-83
2022/10/18 03:05:48;;;;;;;0.45;0.45;;;;;;;10.12;100.00;101142.97;5050981;28;20040;-83
2022/10/18 03:08:13;;;;;;;0.30;0.30;;;;;;;10.14;100.00;101149.69;5033879;28;20425;-83
2022/10/18 03:10:39;;;;;;;1.08;0.52;;;;;;;10.14;100.00;101148.91;5034577;28;20051;-83
2022/10/18 03:13:05;;;;;;;0.60;0.60;;;;;;;10.13;100.00;101145.34;4998591;28;20044;-82
2022/10/18 03:15:30;;;;;;;1.55;0.98;;;;;;;10.13;100.00;101136.22;5030976;28;20072;-85
2022/10/18 03:17:56;;;;;;;1.42;1.33;;;;;;;10.07;100.00;101144.19;5017623;28;20132;-86
2022/10/18 03:20:22;;;;;;;1.85;1.63;;;;;;;10.05;100.00;101143.03;5030095;28;20067;-85
2022/10/18 03:22:47;;;;;;;1.38;1.15;;;;;;;10.00;100.00;101146.22;5032599;28;20049;-85
2022/10/18 03:25:13;;;;;;;6.97;1.42;;;;;;;9.89;100.00;101140.75;5034005;28;20037;-83
2022/10/18 03:27:38;;;;;;;0.75;0.75;;;;;;;9.82;100.00;101140.81;5033851;28;20064;-84
2022/10/18 03:30:04;;;;;;;1.55;1.45;;;;;;;9.86;100.00;101152.66;5033939;28;20044;-84
2022/10/18 03:32:30;;;;;;;1.38;1.23;;;;;;;9.74;100.00;101139.28;5012602;28;20206;-84
2022/10/18 03:34:55;;;;;;;1.55;1.02;;;;;;;9.73;100.00;101140.47;5006215;28;20055;-83
2022/10/18 03:37:21;;;;;;;2.35;1.10;;;;;;;9.70;100.00;101138.50;5017055;28;20182;-83
2022/10/18 03:39:46;;;;;;;0.98;0.80;;;;;;;9.68;100.00;101143.63;5051294;28;20052;-84
2022/10/18 03:42:12;;;;;;;1.42;1.33;;;;;;;9.64;100.00;101137.34;5019752;28;20053;-84
2022/10/18 03:44:37;;;;;;;0.28;0.28;;;;;;;9.58;100.00;101127.88;5051519;28;20136;-83
2022/10/18 03:47:03;;;;;;;2.50;1.67;;;;;;;9.59;100.00;101135.78;4995784;28;20050;-84
2022/10/18 03:49:28;;;;;;;0.70;0.70;;;;;;;9.60;100.00;101133.78;5028311;28;20037;-84
2022/10/18 03:51:54;;;;;;;1.23;1.13;;;;;;;9.54;100.00;101129.88;5049859;28;20037;-85
2022/10/18 03:54:22;;;;;;;0.68;0.63;;;;;;;9.54;100.00;101133.44;5034123;28;20045;-85
2022/10/18 03:56:48;;;;;;;0.98;0.73;;;;;;;9.55;100.00;101136.97;5033176;28;20118;-85
2022/10/18 03:59:15;;;;;;;0.57;0.57;;;;;;;9.51;100.00;101131.47;5016353;28;20053;-85
2022/10/18 04:01:41;;;;;;;0.35;0.35;;;;;;;9.45;100.00;101133.09;5016250;28;20204;-85
2022/10/18 04:04:06;;;;;;;1.33;0.95;;;;;;;9.45;100.00;101132.28;5051045;28;20190;-84
2022/10/18 04:06:32;;;;;;;0.63;0.63;;;;;;;9.46;100.00;101131.91;5051120;28;20045;-84
2022/10/18 04:08:58;;;;;;;1.30;1.20;;;;;;;9.42;100.00;101135.88;5006370;28;20043;-84
2022/10/18 04:11:23;;;;;;;0.65;0.65;;;;;;;9.40;100.00;101141.81;4998220;28;20141;-83
2022/10/18 04:13:49;;;;;;;1.98;1.27;;;;;;;9.38;100.00;101126.78;5016480;28;20033;-83
2022/10/18 04:16:14;;;;;;;1.33;1.23;;;;;;;9.34;100.00;101127.56;5016391;28;20043;-83
2022/10/18 04:18:40;;;;;;;1.10;0.88;;;;;;;9.29;100.00;101119.72;5016581;28;20033;-83
2022/10/18 04:21:05;;;;;;;1.38;1.25;;;;;;;9.27;100.00;101130.38;5050575;28;20041;-83
2022/10/18 04:23:31;;;;;;;0.65;0.65;;;;;;;9.18;100.00;101116.16;5015607;28;20528;-83
2022/10/18 04:25:56;;;;;;;2.47;1.30;;;;;;;9.22;100.00;101121.72;4999959;28;20037;-83
2022/10/18 04:28:22;;;;;;;1.13;1.10;;;;;;;9.17;100.00;101127.66;5032551;28;20032;-83
2022/10/18 04:30:49;;;;;;;0.30;0.30;;;;;;;9.09;100.00;101137.97;5010127;28;20038;-85
2022/10/18 04:33:15;;;;;;;3.30;2.17;;;;;;;9.09;100.00;101121.38;4988740;28;20065;-85
2022/10/18 04:35:40;;;;;;;10.13;1.42;;;;;;;8.99;100.00;101121.38;4996802;28;20080;-84
2022/10/18 04:38:05;;;;;;;0.95;0.88;;;;;;;8.95;100.00;101121.41;4999758;28;20036;-85
2022/10/18 04:40:31;;;;;;;3.05;1.23;;;;;;;8.97;100.00;101121.00;5000291;28;20068;-85
2022/10/18 04:42:56;;;;;;;0.70;0.70;;;;;;;8.98;100.00;101123.34;5032284;28;20427;-85
2022/10/18 04:45:22;;;;;;;1.63;1.52;;;;;;;8.99;100.00;101122.19;5046734;28;20420;-85
2022/10/18 04:47:47;;;;;;;1.45;1.05;;;;;;;8.95;100.00;101115.06;5068177;28;20032;-85
2022/10/18 04:50:13;;;;;;;4.95;2.13;;;;;;;8.97;100.00;101115.47;5033391;28;20607;-83
2022/10/18 04:52:38;;;;;;;5.40;1.90;;;;;;;8.98;100.00;101119.81;5018532;28;20115;-84
2022/10/18 04:55:04;;;;;;;1.13;1.02;;;;;;;8.99;100.00;101111.09;5027440;28;20450;-83
2022/10/18 04:57:30;;;;;;;1.05;1.02;;;;;;;8.96;100.00;101111.91;5033108;28;20123;-83
2022/10/18 04:59:55;;;;;;;0.38;0.38;;;;;;;8.97;100.00;101121.81;5031297;28;20112;-83
2022/10/18 05:02:20;;;;;;;0.98;0.93;;;;;;;8.97;100.00;101118.25;5005281;28;20518;-84
2022/10/18 05:04:46;;;;;;;0.50;0.50;;;;;;;8.94;100.00;101119.06;5026512;28;20124;-83
2022/10/18 05:07:11;;;;;;;1.73;1.63;;;;;;;8.93;100.00;101123.00;5040785;28;20037;-84
2022/10/18 05:09:37;;;;;;;1.98;1.88;;;;;;;8.89;100.00;101117.47;5033412;28;20044;-85
2022/10/18 05:12:02;;;;;;;0.68;0.68;;;;;;;8.92;100.00;101122.22;5015275;28;20051;-86
2022/10/18 05:14:28;;;;;;;0.38;0.35;;;;;;;8.96;100.00;101133.25;5035429;28;20075;-86
2022/10/18 05:16:53;;;;;;;2.47;1.15;;;;;;;8.90;100.00;101110.72;5021950;28;20036;-86
2022/10/18 05:19:19;;;;;;;3.30;0.95;;;;;;;8.97;100.00;101124.56;5053798;28;20049;-85
2022/10/18 05:21:44;;;;;;;1.73;1.63;;;;;;;8.94;100.00;101119.81;5026302;28;20132;-86
2022/10/18 05:24:10;;;;;;;1.35;0.88;;;;;;;8.92;100.00;101121.41;5015980;28;20045;-84
2022/10/18 05:26:36;;;;;;;0.85;0.85;;;;;;;8.96;100.00;101120.22;5037648;28;20483;-82
2022/10/18 05:29:02;;;;;;;0.38;0.38;;;;;;;8.95;100.00;101121.41;5044042;28;20090;-86
2022/10/18 05:31:27;;;;;;;3.08;1.83;;;;;;;8.94;100.00;101125.34;5035874;28;20529;-86
2022/10/18 05:33:53;;;;;;;1.13;0.52;;;;;;;8.94;100.00;101124.59;5021522;28;20037;-86
2022/10/18 05:36:18;;;;;;;0.63;0.63;;;;;;;8.90;100.00;101116.25;5033468;28;20483;-85
2022/10/18 05:38:44;;;;;;;1.90;1.65;;;;;;;8.89;100.00;101114.72;5026468;28;20390;-86
2022/10/18 05:41:10;;;;;;;2.70;1.83;;;;;;;8.88;100.00;101119.44;5010441;28;20064;-83
2022/10/18 05:43:36;;;;;;;1.02;0.85;;;;;;;8.87;100.00;101119.84;5016055;28;20068;-83
2022/10/18 05:46:03;;;;;;;1.23;1.15;;;;;;;8.92;100.00;101121.41;5035823;28;20045;-87
2022/10/18 05:48:29;;;;;;;3.10;1.73;;;;;;;8.94;100.00;101130.88;5035757;28;20474;-86
2022/10/18 05:50:58;;;;;;;0.60;0.60;;;;;;;9.00;100.00;101134.84;5034551;28;20041;-84
2022/10/18 05:53:23;;;;;;;3.33;2.15;;;;;;;9.07;100.00;101129.28;4997752;28;20076;-85
2022/10/18 05:55:49;;;;;;;0.85;0.85;;;;;;;9.16;100.00;101121.34;5049822;28;20148;-84
2022/10/18 05:58:14;;;;;;;0.57;0.57;;;;;;;9.29;100.00;101119.72;5051649;28;20048;-84
2022/10/18 06:00:39;;;;;;;2.28;2.08;;;;;;;9.38;100.00;101125.56;5052772;28;20143;-84
2022/10/18 06:03:05;;;;;;;2.20;1.83;;;;;;;9.44;100.00;101128.72;5053244;28;20076;-84
2022/10/18 06:05:30;;;;;;;13.15;1.27;;;;;;;9.54;100.00;101125.13;5026222;28;20037;-84
2022/10/18 06:07:56;;;;;;;1.30;1.20;;;;;;;9.65;100.00;101120.31;5015920;28;20091;-82
2022/10/18 06:10:22;;;;;;;0.77;0.77;;;;;;;9.68;100.00;101124.25;5016565;28;20042;-82
2022/10/18 06:12:47;;;;;;;2.67;1.65;;;;;;;9.79;100.00;101125.75;5017181;28;20037;-83
2022/10/18 06:15:13;;;;;;;0.95;0.88;;;;;;;9.94;100.00;101132.03;5016976;28;20132;-83
2022/10/18 06:17:38;;;;;;;3.25;2.95;;;;;;;10.02;100.00;101116.91;5033210;28;20037;-83
2022/10/18 06:20:04;;;;;;;2.28;2.08;;;;;;;10.20;100.00;101128.69;5015632;28;20040;-83
2022/10/18 06:22:30;;;;;;;3.58;1.42;;;;;;;10.38;100.00;101133.28;5050996;28;20563;-83
2022/10/18 06:24:55;;;;;;;1.95;1.70;;;;;;;10.57;100.00;101124.41;5016774;28;20139;-83
2022/10/18 06:27:21;;;;;;;0.32;0.32;;;;;;;10.71;100.00;101129.81;5035224;28;20087;-83
2022/10/18 06:29:46;;;;;;;4.05;1.77;;;;;;;10.82;100.00;101129.72;5002396;28;20029;-83
2022/10/18 06:32:12;;;;;;;1.25;1.15;;;;;;;11.00;100.00;101133.09;5018551;28;20060;-83
2022/10/18 06:34:37;;;;;;;0.88;0.63;;;;;;;11.18;100.00;101131.69;4997674;28;20133;-83
2022/10/18 06:37:03;;;;;;;1.27;1.25;;;;;;;11.34;100.00;101138.63;4995359;28;20084;-84
2022/10/18 06:39:28;;;;;;;1.08;1.05;;;;;;;11.48;100.00;101138.47;5018029;28;20485;-84
2022/10/18 06:41:54;;;;;;;0.93;0.93;;;;;;;11.63;100.00;101132.31;5018621;28;20391;-84
2022/10/18 06:44:20;;;;;;;1.65;1.55;;;;;;;11.71;100.00;101130.22;5018316;28;20041;-84
2022/10/18 06:46:46;;;;;;;1.77;1.17;;;;;;;11.82;100.00;101136.44;5035149;28;20080;-83
2022/10/18 06:49:13;;;;;;;1.45;1.20;;;;;;;11.93;100.00;101137.06;5014238;28;20083;-84
2022/10/18 06:51:39;;;;;;;5.28;3.15;;;;;;;12.06;100.00;101135.28;4998731;28;20041;-84
2022/10/18 06:54:05;;;;;;;1.83;1.52;;;;;;;12.20;100.00;101141.84;5014967;28;20050;-84
2022/10/18 06:56:32;;;;;;;1.25;0.95;;;;;;;12.13;100.00;101126.81;5014670;28;20104;-83
2022/10/18 06:58:57;;;;;;;0.80;0.80;;;;;;;12.32;100.00;101116.19;5014785;28;20042;-83
2022/10/18 07:01:23;;;;;;;1.65;1.55;;;;;;;12.53;100.00;101124.19;5025836;28;20106;-84
2022/10/18 07:03:51;;;;;;;1.63;1.00;;;;;;;12.67;100.00;101129.50;5049454;28;20040;-85
2022/10/18 07:06:18;;;;;;;1.42;1.33;;;;;;;12.86;100.00;101125.94;5001375;28;20132;-84
2022/10/18 07:08:44;;;;;;;3.67;2.53;;;;;;;13.04;100.00;101131.97;5017987;28;20096;-85
2022/10/18 07:11:17;;;;;;;1.50;0.90;;;;;;;13.17;100.00;101123.03;4998057;28;20041;-85
2022/10/18 07:13:43;;;;;;;;;;;;;;;13.34;100.00;101133.03;4982334;28;20049;-84
2022/10/18 07:16:11;;;;;;;1.45;1.00;;;;;;;13.53;100.00;101127.44;5014537;28;19917;-84
2022/10/18 07:18:42;;;;;;;1.15;1.08;;;;;;;13.67;100.00;101122.78;5033267;28;20049;-85
2022/10/18 07:21:09;;;;;;;0.28;0.28;;;;;;;13.69;100.00;101104.38;5001319;28;20132;-84
2022/10/18 07:23:36;;;;;;;1.45;1.35;;;;;;;13.72;100.00;101114.66;5017327;28;20448;-83
2022/10/18 07:26:05;;;;;;;0.65;0.65;;;;;;;13.82;100.00;101113.66;5034173;28;20045;-83
2022/10/18 07:28:31;;;;;;;1.52;1.05;;;;;;;13.68;100.00;101105.59;5033689;28;20474;-83
2022/10/18 07:30:56;;;;;;;0.70;0.70;;;;;;;13.82;100.00;101110.88;5049416;28;20048;-83
2022/10/18 07:33:23;;;;;;;0.43;0.43;;;;;;;13.95;100.00;101100.56;5017140;28;20052;-83
2022/10/18 07:35:51;;;;;;;2.05;1.42;;;;;;;13.97;100.00;101105.72;5017470;28;20041;-84
2022/10/18 07:38:16;;;;;;;0.98;0.85;;;;;;;14.13;100.00;101108.53;5032671;28;20087;-83
2022/10/18 07:40:42;;;;;;;1.40;1.30;;;;;;;14.28;100.00;101100.59;5033141;28;20089;-84
2022/10/18 07:43:07;;;;;;;2.65;1.60;;;;;;;14.46;100.00;101098.16;5016586;28;20130;-84
2022/10/18 07:45:32;;;;;;;0.70;0.52;;;;;;;14.64;100.00;101095.69;5031998;28;20107;-84
2022/10/18 07:47:58;;;;;;;1.70;1.60;;;;;;;14.64;100.00;101090.09;5016887;28;20077;-84
2022/10/18 07:50:23;;;;;;;1.02;1.02;;;;;;;14.98;100.00;101091.59;5016869;28;20064;-84
2022/10/18 07:52:49;;;;;;;5.72;1.83;;;;;;;14.82;100.00;101090.41;5032449;28;20045;-84
2022/10/18 07:55:14;;;;;;;1.02;0.93;;;;;;;14.88;100.00;101087.88;5033437;28;20037;-84
2022/10/18 07:57:40;;;;;;;1.33;1.20;;;;;;;14.99;100.00;101101.53;5015953;28;20045;-84
2022/10/18 08:00:07;;;;;;;0.50;0.50;;;;;;;15.21;100.00;101094.09;4998505;28;20338;-86
2022/10/18 08:02:36;;;;;;;0.73;0.73;;;;;;;15.27;100.00;101092.34;5049664;28;20111;-86
2022/10/18 08:05:02;;;;;;;2.08;1.33;;;;;;;15.50;97.40;101100.47;5030869;28;20048;-86
2022/10/18 08:07:28;;;;;;;1.45;1.35;;;;;;;15.60;93.53;101102.16;5000668;28;20048;-86
2022/10/18 08:09:53;;;;;;;2.95;2.35;;;;;;;15.71;92.00;101105.41;5029946;28;20445;-86
2022/10/18 08:12:19;;;;;;;2.13;1.92;;;;;;;15.76;89.28;101101.28;5014729;28;20457;-86
2022/10/18 08:14:45;;;;;;;1.45;1.27;;;;;;;15.81;90.46;101104.28;5049283;28;20029;-87
2022/10/18 08:17:11;;;;;;;1.13;0.85;;;;;;;15.67;89.20;101093.56;5048047;28;20037;-86
2022/10/18 08:19:36;;;;;;;3.28;1.42;;;;;;;15.59;91.54;101092.22;5032997;28;20036;-84
2022/10/18 08:22:02;;;;;;;1.98;1.05;;;;;;;15.58;89.74;101099.03;5038470;28;20414;-84
2022/10/18 08:24:27;;;;;;;3.08;2.47;;;;;;;15.73;88.10;101096.59;5013860;28;20462;-84
2022/10/18 08:26:53;;;;;;;1.20;1.10;;;;;;;15.49;88.97;101095.31;5008033;28;20109;-84
2022/10/18 08:29:18;;;;;;;4.90;1.38;;;;;;;15.54;90.00;101101.16;5013154;28;20041;-84
2022/10/18 08:31:44;;;;;;;0.98;0.98;;;;;;;15.76;89.84;101093.69;5030880;28;20045;-84
2022/10/18 08:34:09;;;;;;;6.47;1.75;;;;;;;16.09;89.39;101080.25;5029569;28;20060;-84
2022/10/18 08:36:34;;;;;;;1.20;1.08;;;;;;;16.01;88.11;101083.72;5015443;28;20187;-84
2022/10/18 08:39:01;;;;;;;2.65;1.52;;;;;;;16.03;89.72;101078.44;5032863;28;20294;-84
2022/10/18 08:41:36;;;;;;;1.55;1.08;;;;;;;16.13;88.23;101080.13;5033151;28;20130;-86
2022/10/18 08:44:31;;;;;;;2.55;1.70;;;;;;;16.30;88.46;101084.31;5050357;28;20095;-87
2022/10/18 08:47:11;;;;;;;1.73;1.42;;;;;;;16.35;86.88;101078.16;5036492;28;20050;-86
2022/10/18 08:49:40;;;;;;;1.88;1.77;;;;;;;16.59;86.32;101079.34;5034745;28;20041;-86
2022/10/18 08:52:15;;;;;;;1.85;1.33;;;;;;;16.74;84.32;101080.41;5029505;28;20046;-87
2022/10/18 08:55:06;;;;;;;3.00;0.90;;;;;;;16.71;83.76;101081.31;5014113;28;20418;-86
2022/10/18 08:57:32;;;;;;;1.13;0.73;;;;;;;16.84;83.96;101077.69;5029432;28;20053;-85
2022/10/18 08:59:58;;;;;;;2.80;1.67;;;;;;;17.06;81.51;101072.88;5052710;28;20445;-84
2022/10/18 09:02:34;;;;;;;1.45;1.35;;;;;;;16.98;82.25;101074.38;5036521;28;20502;-82
2022/10/18 09:05:24;;;;;;;3.28;1.35;;;;;;;17.12;79.95;101076.66;5035516;28;20049;-82
2022/10/18 09:08:02;;;;;;;1.80;1.00;;;;;;;17.31;80.42;101069.16;5019578;28;20046;-82
2022/10/18 09:10:39;;;;;;;3.45;2.58;;;;;;;17.35;78.15;101073.38;5005258;28;20130;-82
2022/10/18 09:13:28;;;;;;;1.25;1.15;;;;;;;17.14;78.04;101071.38;5038948;28;20041;-82
2022/10/18 09:16:01;;;;;;;2.20;1.98;;;;;;;17.34;78.97;101065.44;5038827;28;20087;-83
2022/10/18 09:18:39;;;;;;;1.70;1.25;;;;;;;17.51;76.42;101069.56;5005348;28;20065;-85
2022/10/18 09:21:16;;;;;;;2.78;1.73;;;;;;;17.50;78.34;101063.19;5038310;28;20490;-84
2022/10/18 09:24:11;;;;;;;1.45;1.15;;;;;;;17.69;76.46;101056.44;5010070;28;20041;-85
2022/10/18 09:26:45;;;;;;;0.90;0.90;;;;;;;17.96;74.55;101050.13;5028849;28;20044;-85
2022/10/18 09:29:13;;;;;;;8.80;2.85;;;;;;;17.85;73.20;101055.41;5002795;28;20120;-85
2022/10/18 09:31:46;;;;;;;3.38;1.52;;;;;;;17.42;74.99;101055.50;5021575;28;20120;-85
2022/10/18 09:34:26;;;;;;;5.10;2.38;;;;;;;17.49;76.25;101041.97;5027427;28;20145;-84
2022/10/18 09:36:51;;;;;;;1.10;1.00;;;;;;;17.85;75.60;101041.38;5038559;28;20056;-85
2022/10/18 09:39:34;;;;;;;2.63;2.08;;;;;;;18.00;73.33;101049.97;5038821;28;20041;-85
2022/10/18 09:42:04;;;;;;;3.78;1.70;;;;;;;18.22;71.18;101049.88;5022380;28;20052;-85
2022/10/18 09:44:49;;;;;;;1.27;1.02;;;;;;;18.26;69.57;101026.00;5021464;28;20452;-85
2022/10/18 09:47:23;;;;;;;2.58;1.63;;;;;;;18.21;71.43;101042.69;5022445;28;20425;-85
2022/10/18 09:50:00;;;;;;;1.20;0.98;;;;;;;18.16;70.59;101042.06;5038021;28;20106;-86
2022/10/18 09:52:35;;;;;;;2.33;1.67;;;;;;;18.44;71.04;101042.13;5035609;28;20045;-85
2022/10/18 09:55:05;;;;;;;1.88;1.52;;;;;;;18.61;69.49;101044.16;5035555;28;20045;-85
2022/10/18 09:57:37;;;;;;;3.60;2.20;;;;;;;18.58;68.17;101036.69;5018239;28;20049;-85
2022/10/18 10:00:06;;;;;;;1.40;1.30;;;;;;;18.59;70.57;101038.25;5001931;28;20048;-87
2022/10/18 10:02:31;;;;;;;1.70;1.58;;;;;;;18.83;67.73;101027.16;5023286;28;20186;-83
2022/10/18 10:04:57;;;;;;;1.58;1.30;;;;;;;18.66;67.59;101022.31;5017919;28;20119;-85
2022/10/18 10:07:29;;;;;;;11.63;1.27;;;;;;;18.70;69.53;101017.31;5001134;28;20414;-85
2022/10/18 10:09:57;;;;;;;1.10;1.02;;;;;;;19.02;67.74;101019.44;5033461;28;20543;-85
2022/10/18 10:12:29;;;;;;;2.50;1.92;;;;;;;18.96;67.85;101019.31;5016687;28;20049;-85
2022/10/18 10:15:26;;;;;;;2.35;2.13;;;;;;;19.16;65.26;100993.50;5015783;28;20438;-85
2022/10/18 10:18:13;;;;;;;1.20;1.10;;;;;;;18.94;66.14;101009.78;5032478;28;20491;-85
2022/10/18 10:20:48;;;;;;;3.10;1.70;;;;;;;19.13;66.97;101007.72;5050905;28;20046;-85
2022/10/18 10:23:21;;;;;;;2.03;1.58;;;;;;;19.17;63.52;101006.28;4999645;28;20066;-86
2022/10/18 10:26:33;;;;;;;1.60;1.50;;;;;;;19.25;67.09;100998.31;5014980;28;20055;-86
2022/10/18 10:28:59;;;;;;;2.05;1.48;;;;;;;19.60;62.72;100998.66;5038501;28;20670;-86
2022/10/18 10:31:27;;;;;;;1.13;1.05;;;;;;;19.25;63.14;101007.50;5031620;28;20068;-88
2022/10/18 10:34:13;;;;;;;2.08;1.85;;;;;;;19.22;63.66;100991.59;5030997;28;20049;-83
2022/10/18 10:36:53;;;;;;;1.55;1.15;;;;;;;19.00;64.94;100991.03;5049357;28;20045;-83
2022/10/18 10:39:20;;;;;;;2.00;1.85;;;;;;;19.17;65.79;100983.03;5032519;28;20108;-83
2022/10/18 10:41:47;;;;;;;2.10;1.73;;;;;;;19.35;63.96;100983.75;5018385;28;20044;-83
2022/10/18 10:44:19;;;;;;;3.45;1.48;;;;;;;19.19;64.53;100974.88;5001741;28;20090;-83
2022/10/18 10:46:45;;;;;;;3.78;1.92;;;;;;;19.45;65.45;100974.03;5032661;28;20036;-83
2022/10/18 10:49:24;;;;;;;2.47;1.92;;;;;;;19.45;63.43;100971.22;5029767;28;20540;-83
2022/10/18 10:51:59;;;;;;;1.08;0.98;;;;;;;19.35;64.11;100975.31;5009282;28;20483;-86
2022/10/18 10:54:26;;;;;;;3.75;2.15;;;;;;;19.48;64.08;100972.31;5023060;28;20037;-85
2022/10/18 10:57:03;;;;;;;2.65;2.17;;;;;;;19.58;64.61;100967.41;4998495;28;20042;-85
2022/10/18 10:59:41;;;;;;;5.22;2.72;;;;;;;19.73;62.95;100945.75;5014483;28;20041;-85
2022/10/18 11:02:12;;;;;;;1.80;1.70;;;;;;;20.08;64.72;100954.44;5020945;28;20057;-85
2022/10/18 11:04:39;;;;;;;2.50;2.30;;;;;;;19.87;61.84;100945.81;5023364;28;20047;-88
2022/10/18 11:07:09;;;;;;;2.47;1.73;;;;;;;20.00;61.67;100937.91;5030111;28;20553;-85
2022/10/18 11:09:43;;;;;;;4.00;2.58;;;;;;;20.02;60.06;100937.41;5028858;28;20043;-88
2022/10/18 11:12:17;;;;;;;1.25;1.13;;;;;;;19.78;60.78;100939.44;5031083;28;20406;-87
2022/10/18 11:14:46;;;;;;;2.88;1.85;;;;;;;19.58;61.70;100939.25;5044930;28;20042;-84
2022/10/18 11:17:20;;;;;;;2.50;1.13;;;;;;;20.01;61.94;100944.31;5028223;28;20033;-84
2022/10/18 11:19:49;;;;;;;2.40;1.75;;;;;;;20.43;61.59;100941.31;5017483;28;20042;-84
2022/10/18 11:22:18;;;;;;;2.35;2.15;;;;;;;20.45;58.30;100936.00;5016500;28;20053;-84
2022/10/18 11:24:44;;;;;;;3.50;1.02;;;;;;;20.24;59.45;100923.78;5032174;28;20490;-84
2022/10/18 11:27:17;;;;;;;3.58;1.98;;;;;;;20.45;59.18;100917.06;5017677;28;20677;-84
2022/10/18 11:30:04;;;;;;;1.83;1.45;;;;;;;20.61;60.10;100929.13;5025114;28;20900;-84
2022/10/18 11:32:52;;;;;;;1.58;1.40;;;;;;;20.74;58.03;100919.13;4997570;28;20530;-84
2022/10/18 11:35:39;;;;;;;2.72;1.80;;;;;;;20.62;57.42;100920.19;4997403;28;20055;-84
2022/10/18 11:38:44;;;;;;;1.58;1.23;;;;;;;20.58;56.80;100916.00;4981727;28;20045;-84
2022/10/18 11:41:15;;;;;;;1.73;1.63;;;;;;;20.51;59.25;100919.19;5030907;28;20053;-84
2022/10/18 11:43:49;;;;;;;1.67;1.58;;;;;;;20.62;57.82;100905.31;4997665;28;20136;-84
2022/10/18 11:46:30;;;;;;;2.25;2.05;;;;;;;20.72;57.38;100909.56;4997201;28;20045;-84
2022/10/18 11:49:07;;;;;;;3.75;2.47;;;;;;;20.94;58.61;100905.09;5031388;28;20061;-82